createdAt,value
2022-08-25T00:01:54.989Z,15.20
2022-08-25T00:04:33.737Z,14.47
2022-08-25T00:07:04.073Z,13.47
2022-08-25T00:09:33.912Z,13.80
2022-08-25T00:12:01.889Z,18.67
2022-08-25T00:14:37.468Z,14.90
2022-08-25T00:17:16.826Z,12.37
2022-08-25T00:19:46.769Z,13.77
2022-08-25T00:22:15.510Z,15.37
2022-08-25T00:24:43.378Z,12.13
2022-08-25T00:27:13.251Z,12.80
2022-08-25T00:29:42.916Z,12.67
2022-08-25T00:32:11.371Z,13.90
2022-08-25T00:34:42.487Z,14.70
2022-08-25T00:37:11.137Z,15.30
2022-08-25T00:39:40.587Z,13.33
2022-08-25T00:42:16.322Z,15.53
2022-08-25T00:44:46.848Z,14.20
2022-08-25T00:47:15.928Z,15.37
2022-08-25T00:49:59.028Z,13.27
2022-08-25T00:52:56.767Z,15.07
2022-08-25T00:55:31.903Z,14.87
2022-08-25T00:58:33.723Z,15.50
2022-08-25T01:01:01.919Z,15.07
2022-08-25T01:03:36.379Z,14.07
2022-08-25T01:06:07.464Z,16.67
2022-08-25T01:08:35.716Z,17.43
2022-08-25T01:11:08.394Z,16.00
2022-08-25T01:13:47.888Z,14.70
2022-08-25T01:16:17.270Z,14.67
2022-08-25T01:19:17.668Z,14.20
2022-08-25T01:21:50.038Z,14.80
2022-08-25T01:24:56.163Z,13.97
2022-08-25T01:27:25.993Z,12.90
2022-08-25T01:29:55.422Z,16.13
2022-08-25T01:32:26.280Z,17.80
2022-08-25T01:34:55.366Z,16.23
2022-08-25T01:37:24.102Z,16.67
2022-08-25T01:43:08.064Z,14.33
2022-08-25T01:45:38.440Z,15.00
2022-08-25T01:48:08.138Z,14.90
2022-08-25T01:50:37.771Z,16.23
2022-08-25T01:53:33.287Z,17.10
2022-08-25T01:56:13.434Z,13.47
2022-08-25T01:58:46.246Z,16.00
2022-08-25T02:01:17.837Z,16.03
2022-08-25T02:03:49.152Z,18.87
2022-08-25T02:06:38.902Z,18.10
2022-08-25T02:09:14.149Z,15.17
2022-08-25T02:11:46.973Z,19.50
2022-08-25T02:14:19.385Z,15.33
2022-08-25T02:16:54.215Z,13.80
2022-08-25T02:19:25.159Z,16.10
2022-08-25T02:21:54.298Z,17.23
2022-08-25T02:24:22.846Z,18.43
2022-08-25T02:26:53.901Z,16.67
2022-08-25T02:29:23.253Z,17.60
2022-08-25T02:32:01.093Z,17.20
2022-08-25T02:37:14.178Z,17.33
2022-08-25T02:39:42.755Z,15.40
2022-08-25T02:42:12.782Z,16.60
2022-08-25T02:44:43.548Z,16.03
2022-08-25T02:47:11.670Z,19.50
2022-08-25T02:49:42.936Z,15.57
2022-08-25T02:52:13.670Z,16.97
2022-08-25T02:57:25.385Z,16.20
2022-08-25T02:59:54.471Z,16.53
2022-08-25T03:02:24.323Z,15.80
2022-08-25T03:04:55.626Z,16.07
2022-08-25T03:07:24.761Z,17.17
2022-08-25T03:09:55.486Z,17.07
2022-08-25T03:12:26.917Z,19.10
2022-08-25T03:14:57.705Z,16.03
2022-08-25T03:17:26.439Z,18.70
2022-08-25T03:19:55.138Z,19.10
2022-08-25T03:22:26.847Z,19.17
2022-08-25T03:25:15.824Z,21.57
2022-08-25T03:27:43.427Z,17.63
2022-08-25T03:30:13.246Z,18.63
2022-08-25T03:32:42.049Z,18.47
2022-08-25T03:35:12.241Z,17.97
2022-08-25T03:37:49.521Z,19.10
2022-08-25T03:40:18.711Z,19.90
2022-08-25T03:42:47.105Z,18.20
2022-08-25T03:45:23.809Z,20.03
2022-08-25T03:47:54.619Z,17.53
2022-08-25T03:50:24.055Z,17.87
2022-08-25T03:52:59.402Z,17.83
2022-08-25T03:55:31.085Z,20.10
2022-08-25T03:58:03.005Z,17.53
2022-08-25T04:00:32.710Z,16.77
2022-08-25T04:03:01.653Z,18.50
2022-08-25T04:05:32.339Z,16.07
2022-08-25T04:08:01.983Z,18.60
2022-08-25T04:10:34.207Z,17.67
2022-08-25T04:13:05.319Z,16.87
2022-08-25T04:15:36.490Z,17.43
2022-08-25T04:18:05.388Z,19.23
2022-08-25T04:20:35.985Z,17.33
2022-08-25T04:25:46.405Z,17.47
2022-08-25T04:28:14.413Z,20.00
2022-08-25T04:30:51.465Z,17.23
2022-08-25T04:33:20.841Z,16.27
2022-08-25T04:35:50.330Z,18.23
2022-08-25T04:38:18.883Z,19.73
2022-08-25T04:40:56.610Z,17.97
2022-08-25T04:43:25.511Z,18.93
2022-08-25T04:45:54.137Z,17.07
2022-08-25T04:48:22.911Z,17.53
2022-08-25T04:50:54.130Z,19.97
2022-08-25T04:53:22.768Z,16.77
2022-08-25T04:55:51.211Z,18.87
2022-08-25T04:58:22.870Z,18.13
2022-08-25T05:00:51.476Z,17.20
2022-08-25T05:03:21.322Z,17.30
2022-08-25T05:05:54.894Z,17.10
2022-08-25T05:08:24.766Z,17.13
2022-08-25T05:10:56.844Z,18.40
2022-08-25T05:13:27.346Z,18.23
2022-08-25T05:16:02.863Z,15.40
2022-08-25T05:18:35.757Z,17.33
2022-08-25T05:21:12.353Z,16.27
2022-08-25T05:23:42.237Z,16.83
2022-08-25T05:26:19.580Z,15.50
2022-08-25T05:28:55.282Z,16.03
2022-08-25T05:31:26.078Z,15.87
2022-08-25T05:33:55.404Z,15.23
2022-08-25T05:36:25.204Z,16.33
2022-08-25T05:38:54.067Z,15.73
2022-08-25T05:41:28.314Z,15.90
2022-08-25T05:46:39.497Z,15.70
2022-08-25T05:49:08.929Z,15.50
2022-08-25T05:51:39.674Z,16.73
2022-08-25T05:54:12.331Z,16.67
2022-08-25T05:56:43.710Z,14.87
2022-08-25T05:59:15.775Z,15.40
2022-08-25T06:02:04.204Z,18.27
2022-08-25T06:07:17.521Z,20.00
2022-08-25T06:09:49.606Z,15.87
2022-08-25T06:12:18.027Z,16.43
2022-08-25T06:14:49.449Z,14.23
2022-08-25T06:17:22.970Z,15.10
2022-08-25T06:19:53.923Z,14.70
2022-08-25T06:22:22.036Z,18.73
2022-08-25T06:24:51.791Z,14.80
2022-08-25T06:27:22.187Z,15.97
2022-08-25T06:29:50.893Z,14.20
2022-08-25T06:32:24.565Z,17.07
2022-08-25T06:34:55.591Z,15.00
2022-08-25T06:37:26.684Z,16.10
2022-08-25T06:39:58.675Z,15.53
2022-08-25T06:42:32.960Z,14.83
2022-08-25T06:47:47.716Z,15.73
2022-08-25T06:50:19.020Z,15.00
2022-08-25T06:52:50.303Z,16.63
2022-08-25T06:55:21.796Z,16.37
2022-08-25T06:57:56.165Z,15.70
2022-08-25T07:00:37.317Z,16.60
2022-08-25T07:03:08.918Z,16.50
2022-08-25T07:05:43.694Z,15.37
2022-08-25T07:08:15.149Z,16.77
2022-08-25T07:10:48.128Z,15.27
2022-08-25T07:13:20.711Z,16.67
2022-08-25T07:15:55.723Z,15.60
2022-08-25T07:18:29.245Z,14.90
2022-08-25T07:20:59.809Z,15.17
2022-08-25T07:23:29.198Z,19.17
2022-08-25T07:26:34.020Z,16.27
2022-08-25T07:29:17.611Z,16.97
2022-08-25T07:31:53.980Z,16.73
2022-08-25T07:34:44.104Z,15.40
2022-08-25T07:40:03.497Z,15.87
2022-08-25T07:42:35.025Z,14.67
2022-08-25T07:45:07.979Z,17.23
2022-08-25T07:47:37.519Z,17.97
2022-08-25T07:50:11.686Z,16.17
2022-08-25T07:55:27.289Z,16.17
2022-08-25T07:57:59.796Z,16.80
2022-08-25T08:00:35.982Z,16.10
2022-08-25T08:03:08.064Z,16.53
2022-08-25T08:05:45.750Z,18.93
2022-08-25T08:08:17.426Z,19.63
2022-08-25T08:11:04.817Z,19.37
2022-08-25T08:13:41.422Z,19.67
2022-08-25T08:24:44.104Z,19.87
2022-08-25T08:27:17.111Z,18.87
2022-08-25T08:29:48.446Z,19.70
2022-08-25T08:32:18.702Z,17.07
2022-08-25T08:34:51.187Z,17.53
2022-08-25T08:37:23.232Z,17.50
2022-08-25T08:39:55.359Z,15.80
2022-08-25T08:43:02.554Z,23.63
2022-08-25T08:45:48.241Z,22.43
2022-08-25T08:48:48.207Z,21.17
2022-08-25T08:51:34.488Z,23.27
2022-08-25T08:54:31.006Z,19.00
2022-08-25T08:57:20.218Z,22.73
2022-08-25T09:00:00.302Z,22.50
2022-08-25T09:02:39.353Z,21.80
2022-08-25T09:05:24.752Z,24.13
2022-08-25T09:08:05.985Z,20.07
2022-08-25T09:10:57.020Z,23.00
2022-08-25T09:13:49.160Z,21.63
2022-08-25T09:16:52.905Z,19.77
2022-08-25T09:19:55.702Z,24.73
2022-08-25T09:22:54.217Z,19.57
2022-08-25T09:26:19.783Z,19.30
2022-08-25T09:29:16.611Z,20.43
2022-08-25T09:31:48.518Z,21.97
2022-08-25T09:34:30.677Z,18.57
2022-08-25T09:37:02.562Z,19.77
2022-08-25T09:39:30.492Z,20.10
2022-08-25T09:44:46.087Z,19.47
2022-08-25T09:47:29.900Z,22.43
2022-08-25T09:50:09.737Z,19.83
2022-08-25T09:52:53.448Z,17.47
2022-08-25T09:55:32.400Z,19.63
2022-08-25T09:58:19.943Z,17.43
2022-08-25T10:01:22.404Z,19.10
2022-08-25T10:03:57.086Z,18.30
2022-08-25T10:06:37.474Z,18.63
2022-08-25T10:09:09.426Z,14.97
2022-08-25T10:11:48.468Z,18.23
2022-08-25T10:14:47.347Z,16.83
2022-08-25T10:17:35.309Z,15.70
2022-08-25T10:20:22.517Z,21.47
2022-08-25T10:22:52.547Z,16.60
2022-08-25T10:25:32.266Z,15.53
2022-08-25T10:28:31.813Z,16.00
2022-08-25T10:31:14.759Z,16.20
2022-08-25T10:34:12.746Z,15.77
2022-08-25T10:37:09.307Z,15.33
2022-08-25T10:40:03.326Z,15.17
2022-08-25T10:42:54.452Z,15.73
2022-08-25T10:45:48.125Z,15.13
2022-08-25T10:48:38.093Z,13.70
2022-08-25T10:51:43.130Z,17.70
2022-08-25T10:54:49.491Z,13.90
2022-08-25T10:58:00.603Z,14.37
2022-08-25T11:00:46.630Z,13.37
2022-08-25T11:03:41.452Z,12.60
2022-08-25T11:06:18.879Z,11.67
2022-08-25T11:09:07.467Z,12.50
2022-08-25T11:11:46.940Z,12.60
2022-08-25T11:14:53.535Z,15.07
2022-08-25T11:18:14.459Z,9.40
2022-08-25T11:21:18.039Z,12.10
2022-08-25T11:24:36.692Z,11.57
2022-08-25T11:27:15.810Z,12.23
2022-08-25T11:30:02.099Z,10.10
2022-08-25T11:32:50.029Z,14.80
2022-08-25T11:36:01.397Z,10.43
2022-08-25T11:39:17.694Z,9.80
2022-08-25T11:42:51.063Z,10.23
2022-08-25T11:45:58.302Z,12.73
2022-08-25T11:48:52.724Z,16.07
2022-08-25T11:51:41.913Z,13.07
2022-08-25T11:54:43.469Z,10.60
2022-08-25T11:57:26.618Z,11.47
2022-08-25T12:00:14.671Z,13.37
2022-08-25T12:02:49.293Z,13.30
2022-08-25T12:05:17.554Z,13.07
2022-08-25T12:08:15.958Z,10.20
2022-08-25T12:11:10.968Z,14.23
2022-08-25T12:13:52.241Z,14.13
2022-08-25T12:16:36.703Z,11.43
2022-08-25T12:19:38.442Z,11.33
2022-08-25T12:22:26.658Z,11.80
2022-08-25T12:25:35.838Z,11.93
2022-08-25T12:28:54.163Z,12.87
2022-08-25T12:32:20.726Z,11.43
2022-08-25T12:34:56.578Z,12.93
2022-08-25T12:37:28.198Z,13.20
2022-08-25T12:40:28.126Z,14.60
2022-08-25T12:43:24.917Z,11.17
2022-08-25T12:46:35.394Z,13.00
2022-08-25T12:49:38.854Z,11.43
2022-08-25T12:52:28.059Z,9.33
2022-08-25T12:55:17.083Z,17.67
2022-08-25T12:58:09.705Z,10.87
2022-08-25T13:01:24.570Z,10.97
2022-08-25T13:04:49.634Z,11.40
2022-08-25T13:07:39.046Z,11.57
2022-08-25T13:10:46.968Z,9.37
2022-08-25T13:13:43.259Z,10.80
2022-08-25T13:16:36.487Z,11.43
2022-08-25T13:19:22.913Z,13.60
2022-08-25T13:21:54.694Z,10.17
2022-08-25T13:24:40.476Z,13.93
2022-08-25T13:27:22.461Z,9.83
2022-08-25T13:29:57.830Z,10.73
2022-08-25T13:32:36.607Z,12.13
2022-08-25T13:35:20.366Z,10.77
2022-08-25T13:38:13.591Z,10.37
2022-08-25T13:40:43.080Z,11.03
2022-08-25T13:43:15.210Z,11.03
2022-08-25T13:45:47.885Z,8.80
2022-08-25T13:48:39.169Z,10.60
2022-08-25T13:51:32.818Z,8.47
2022-08-25T13:54:09.371Z,9.57
2022-08-25T13:56:42.545Z,9.63
2022-08-25T13:59:26.902Z,8.10
2022-08-25T14:01:58.856Z,8.80
2022-08-25T14:04:57.501Z,10.23
2022-08-25T14:07:35.716Z,9.40
2022-08-25T14:13:37.505Z,8.80
2022-08-25T14:16:26.131Z,8.57
2022-08-25T14:19:03.526Z,8.53
2022-08-25T14:21:34.666Z,8.30
2022-08-25T14:24:09.995Z,8.43
2022-08-25T14:26:53.928Z,11.50
2022-08-25T14:29:25.080Z,8.30
2022-08-25T14:31:52.765Z,9.00
2022-08-25T14:34:34.359Z,9.40
2022-08-25T14:37:15.609Z,8.07
2022-08-25T14:39:47.537Z,8.37
2022-08-25T14:42:16.816Z,9.27
2022-08-25T14:44:50.988Z,7.60
2022-08-25T14:47:20.848Z,7.93
2022-08-25T14:49:54.872Z,7.50
2022-08-25T14:52:40.719Z,8.57
2022-08-25T14:55:12.352Z,6.57
2022-08-25T14:57:44.461Z,7.07
2022-08-25T15:00:16.067Z,7.53
2022-08-25T15:02:53.651Z,8.13
2022-08-25T15:05:30.157Z,7.47
2022-08-25T15:08:20.978Z,9.80
2022-08-25T15:10:51.087Z,6.77
2022-08-25T15:13:22.515Z,6.83
2022-08-25T15:15:52.329Z,6.87
2022-08-25T15:18:30.062Z,6.67
2022-08-25T15:21:00.722Z,8.03
2022-08-25T15:23:35.389Z,7.60
2022-08-25T15:26:08.682Z,6.07
2022-08-25T15:28:46.805Z,6.23
2022-08-25T15:31:17.100Z,7.17
2022-08-25T15:33:50.143Z,6.97
2022-08-25T15:36:21.976Z,6.53
2022-08-25T15:38:53.251Z,7.07
2022-08-25T15:41:27.931Z,7.77
2022-08-25T15:44:00.356Z,7.90
2022-08-25T15:46:30.240Z,6.27
2022-08-25T15:49:05.100Z,6.33
2022-08-25T15:51:38.498Z,6.10
2022-08-25T15:54:10.559Z,6.40
2022-08-25T15:56:40.842Z,6.40
2022-08-25T15:59:17.682Z,7.40
2022-08-25T16:01:54.008Z,7.63
2022-08-25T16:04:26.421Z,9.27
2022-08-25T16:09:40.283Z,7.73
2022-08-25T16:12:10.047Z,6.13
2022-08-25T16:14:41.955Z,5.93
2022-08-25T16:19:57.240Z,7.60
2022-08-25T16:22:26.869Z,6.47
2022-08-25T16:24:59.288Z,8.63
2022-08-25T16:27:38.650Z,6.97
2022-08-25T16:30:19.813Z,7.07
2022-08-25T16:32:51.008Z,6.83
2022-08-25T16:35:20.934Z,7.67
2022-08-25T16:37:53.564Z,7.57
2022-08-25T16:40:24.532Z,8.20
2022-08-25T16:42:58.711Z,8.47
2022-08-25T16:45:30.078Z,6.97
2022-08-25T16:48:03.296Z,9.30
2022-08-25T16:53:35.962Z,7.10
2022-08-25T16:56:06.648Z,7.10
2022-08-25T16:58:39.112Z,5.97
2022-08-25T17:01:15.753Z,6.23
2022-08-25T17:03:44.946Z,9.03
2022-08-25T17:06:16.935Z,5.83
2022-08-25T17:08:48.057Z,5.50
2022-08-25T17:11:21.982Z,7.27
2022-08-25T17:13:53.669Z,6.27
2022-08-25T17:16:35.732Z,6.07
2022-08-25T17:19:07.744Z,5.50
2022-08-25T17:21:47.533Z,7.50
2022-08-25T17:24:29.223Z,6.30
2022-08-25T17:27:04.246Z,9.60
2022-08-25T17:29:37.443Z,10.10
2022-08-25T17:32:08.694Z,6.53
2022-08-25T17:34:41.815Z,6.60
2022-08-25T17:40:02.788Z,6.73
2022-08-25T17:42:41.394Z,8.00
2022-08-25T17:45:15.493Z,9.20
2022-08-25T17:47:43.615Z,8.30
2022-08-25T17:50:20.946Z,8.07
2022-08-25T17:52:48.558Z,8.60
2022-08-25T17:55:29.016Z,8.73
2022-08-25T17:58:08.205Z,8.90
2022-08-25T18:03:22.881Z,9.83
2022-08-25T18:05:53.317Z,8.37
2022-08-25T18:08:32.027Z,7.97
2022-08-25T18:11:08.653Z,7.73
2022-08-25T18:13:45.690Z,8.90
2022-08-25T18:16:16.959Z,7.83
2022-08-25T18:18:52.854Z,8.30
2022-08-25T18:21:24.629Z,7.73
2022-08-25T18:23:55.914Z,9.40
2022-08-25T18:26:27.625Z,8.67
2022-08-25T18:28:58.370Z,10.93
2022-08-25T18:31:28.160Z,9.77
2022-08-25T18:33:59.050Z,7.57
2022-08-25T18:36:31.257Z,8.20
2022-08-25T18:39:18.986Z,8.80
2022-08-25T18:41:49.038Z,10.77
2022-08-25T18:44:20.112Z,8.07
2022-08-25T18:46:52.561Z,8.47
2022-08-25T18:49:26.746Z,9.20
2022-08-25T18:51:57.555Z,10.50
2022-08-25T18:54:28.764Z,8.20
2022-08-25T18:56:57.542Z,8.50
2022-08-25T19:02:13.875Z,11.60
2022-08-25T19:04:45.453Z,9.43
2022-08-25T19:07:17.269Z,8.60
2022-08-25T19:09:48.626Z,7.63
2022-08-25T19:12:22.840Z,8.73
2022-08-25T19:14:54.044Z,8.63
2022-08-25T19:17:24.902Z,10.70
2022-08-25T19:19:55.918Z,9.27
2022-08-25T19:22:41.169Z,8.53
2022-08-25T19:25:13.371Z,8.57
2022-08-25T19:27:45.085Z,9.57
2022-08-25T19:30:17.040Z,9.50
2022-08-25T19:35:41.910Z,10.53
2022-08-25T19:38:33.291Z,9.50
2022-08-25T19:41:10.694Z,9.03
2022-08-25T19:43:56.283Z,13.33
2022-08-25T19:46:35.693Z,8.63
2022-08-25T19:49:24.331Z,9.87
2022-08-25T19:51:55.582Z,9.60
2022-08-25T19:54:33.621Z,8.90
2022-08-25T19:57:05.274Z,11.57
2022-08-25T19:59:43.528Z,10.57
2022-08-25T20:02:15.984Z,10.90
2022-08-25T20:04:50.626Z,9.47
2022-08-25T20:07:23.783Z,8.73
2022-08-25T20:09:54.423Z,9.23
2022-08-25T20:12:26.522Z,9.63
2022-08-25T20:14:55.918Z,10.13
2022-08-25T20:17:28.506Z,10.87
2022-08-25T20:20:01.259Z,10.63
2022-08-25T20:22:32.775Z,8.97
2022-08-25T20:25:36.851Z,10.50
2022-08-25T20:28:05.888Z,9.40
2022-08-25T20:30:44.765Z,9.07
2022-08-25T20:33:14.509Z,11.50
2022-08-25T20:35:54.116Z,9.60
2022-08-25T20:38:26.773Z,9.73
2022-08-25T20:40:57.599Z,10.80
2022-08-25T20:43:28.078Z,9.57
2022-08-25T20:46:04.088Z,10.67
2022-08-25T20:48:32.080Z,12.10
2022-08-25T20:51:08.123Z,9.47
2022-08-25T20:53:37.567Z,9.27
2022-08-25T20:56:14.066Z,9.67
2022-08-25T20:58:43.700Z,9.67
2022-08-25T21:01:24.384Z,11.13
2022-08-25T21:03:54.036Z,11.60
2022-08-25T21:06:22.796Z,12.97
2022-08-25T21:08:53.138Z,9.33
2022-08-25T21:11:28.168Z,10.43
2022-08-25T21:14:05.967Z,10.00
2022-08-25T21:16:49.179Z,9.40
2022-08-25T21:19:26.779Z,9.97
2022-08-25T21:22:03.566Z,9.73
2022-08-25T21:24:34.001Z,11.43
2022-08-25T21:27:03.147Z,10.13
2022-08-25T21:29:33.961Z,9.67
2022-08-25T21:32:02.900Z,10.53
2022-08-25T21:34:33.913Z,10.30
2022-08-25T21:37:03.668Z,10.30
2022-08-25T21:42:15.914Z,10.60
2022-08-25T21:44:45.316Z,10.60
2022-08-25T21:47:15.989Z,10.57
2022-08-25T21:49:52.811Z,10.53
2022-08-25T21:52:22.727Z,10.67
2022-08-25T21:54:54.046Z,10.50
2022-08-25T21:57:23.953Z,10.53
2022-08-25T21:59:53.717Z,10.30
2022-08-25T22:02:23.773Z,10.33
2022-08-25T22:04:57.954Z,10.50
2022-08-25T22:07:27.596Z,10.30
2022-08-25T22:10:06.713Z,12.90
2022-08-25T22:12:39.151Z,11.00
2022-08-25T22:17:52.562Z,12.47
2022-08-25T22:20:24.075Z,10.10
2022-08-25T22:22:54.367Z,10.77
2022-08-25T22:25:23.610Z,11.07
2022-08-25T22:27:56.604Z,11.13
2022-08-25T22:30:29.362Z,10.43
2022-08-25T22:33:01.444Z,10.30
2022-08-25T22:35:33.082Z,11.93
2022-08-25T22:38:04.128Z,10.40
2022-08-25T22:40:36.667Z,11.57
2022-08-25T22:43:06.436Z,12.40
2022-08-25T22:45:39.106Z,10.13
2022-08-25T22:48:07.856Z,11.33
2022-08-25T22:50:37.918Z,10.73
2022-08-25T22:53:06.774Z,11.90
2022-08-25T22:55:42.938Z,10.43
2022-08-25T23:00:57.884Z,10.97
2022-08-25T23:03:28.965Z,10.63
2022-08-25T23:05:57.929Z,10.37
2022-08-25T23:08:40.807Z,10.70
2022-08-25T23:11:14.119Z,10.83
2022-08-25T23:13:43.045Z,11.13
2022-08-25T23:16:21.222Z,10.20
2022-08-25T23:18:50.178Z,10.90
2022-08-25T23:21:41.225Z,11.97
2022-08-25T23:24:13.845Z,10.57
2022-08-25T23:26:58.923Z,12.40
2022-08-25T23:29:28.118Z,10.70
2022-08-25T23:32:04.853Z,10.67
2022-08-25T23:34:36.320Z,11.10
2022-08-25T23:37:06.309Z,11.10
2022-08-25T23:39:35.815Z,10.10
2022-08-25T23:44:54.074Z,10.80
2022-08-25T23:47:23.914Z,10.77
2022-08-25T23:49:55.606Z,10.60
2022-08-25T23:52:25.870Z,10.57
2022-08-25T23:54:55.164Z,10.83
2022-08-25T23:57:26.638Z,10.93
2022-08-25T23:59:58.784Z,10.40
